sensor_id;sensor_type;location;lat;lon;timestamp;temperature;humidity
14985;DHT22;7588;62.368;25.902;2023-05-19T00:00:17;3.80;99.90
14985;DHT22;7588;62.368;25.902;2023-05-19T00:02:43;3.90;99.90
14985;DHT22;7588;62.368;25.902;2023-05-19T00:05:10;4.00;99.90
14985;DHT22;7588;62.368;25.902;2023-05-19T00:07:37;4.10;99.90
14985;DHT22;7588;62.368;25.902;2023-05-19T00:10:04;4.10;99.90
14985;DHT22;7588;62.368;25.902;2023-05-19T00:12:31;4.10;99.90
14985;DHT22;7588;62.368;25.902;2023-05-19T00:14:57;4.10;99.90
14985;DHT22;7588;62.368;25.902;2023-05-19T00:17:23;4.00;99.90
14985;DHT22;7588;62.368;25.902;2023-05-19T00:19:48;4.00;99.90
14985;DHT22;7588;62.368;25.902;2023-05-19T00:22:14;4.00;99.90
14985;DHT22;7588;62.368;25.902;2023-05-19T00:24:40;4.00;99.90
14985;DHT22;7588;62.368;25.902;2023-05-19T00:27:06;4.00;99.90
14985;DHT22;7588;62.368;25.902;2023-05-19T00:29:32;4.00;99.90
14985;DHT22;7588;62.368;25.902;2023-05-19T00:31:57;4.10;99.90
14985;DHT22;7588;62.368;25.902;2023-05-19T00:34:23;4.00;99.90
14985;DHT22;7588;62.368;25.902;2023-05-19T00:36:49;4.00;99.90
14985;DHT22;7588;62.368;25.902;2023-05-19T00:39:15;3.90;99.90
14985;DHT22;7588;62.368;25.902;2023-05-19T00:41:40;3.90;99.90
14985;DHT22;7588;62.368;25.902;2023-05-19T00:44:06;3.90;99.90
14985;DHT22;7588;62.368;25.902;2023-05-19T00:46:32;3.90;99.90
14985;DHT22;7588;62.368;25.902;2023-05-19T00:48:58;3.90;99.90
14985;DHT22;7588;62.368;25.902;2023-05-19T00:51:25;3.90;99.90
14985;DHT22;7588;62.368;25.902;2023-05-19T00:53:52;3.80;99.90
14985;DHT22;7588;62.368;25.902;2023-05-19T00:56:19;3.70;99.90
14985;DHT22;7588;62.368;25.902;2023-05-19T00:58:46;3.80;99.90
14985;DHT22;7588;62.368;25.902;2023-05-19T01:01:12;3.80;99.90
14985;DHT22;7588;62.368;25.902;2023-05-19T01:03:39;3.80;99.90
14985;DHT22;7588;62.368;25.902;2023-05-19T01:06:07;3.80;99.90
14985;DHT22;7588;62.368;25.902;2023-05-19T01:08:34;3.90;99.90
14985;DHT22;7588;62.368;25.902;2023-05-19T01:11:00;3.90;99.90
14985;DHT22;7588;62.368;25.902;2023-05-19T01:13:27;3.90;99.90
14985;DHT22;7588;62.368;25.902;2023-05-19T01:16:21;3.80;99.90
14985;DHT22;7588;62.368;25.902;2023-05-19T01:18:59;3.80;99.90
14985;DHT22;7588;62.368;25.902;2023-05-19T01:31:54;3.40;99.90
14985;DHT22;7588;62.368;25.902;2023-05-19T01:34:22;3.30;99.90
14985;DHT22;7588;62.368;25.902;2023-05-19T01:36:50;3.20;99.90
14985;DHT22;7588;62.368;25.902;2023-05-19T01:39:18;3.20;99.90
14985;DHT22;7588;62.368;25.902;2023-05-19T01:41:44;3.10;99.90
14985;DHT22;7588;62.368;25.902;2023-05-19T01:44:11;3.00;99.90
14985;DHT22;7588;62.368;25.902;2023-05-19T01:46:37;3.00;99.90
14985;DHT22;7588;62.368;25.902;2023-05-19T01:49:04;3.00;99.90
14985;DHT22;7588;62.368;25.902;2023-05-19T01:51:30;2.90;99.90
14985;DHT22;7588;62.368;25.902;2023-05-19T01:53:56;2.80;99.90
14985;DHT22;7588;62.368;25.902;2023-05-19T02:01:53;2.80;99.90
14985;DHT22;7588;62.368;25.902;2023-05-19T02:04:40;2.70;99.90
14985;DHT22;7588;62.368;25.902;2023-05-19T02:07:51;2.70;99.90
14985;DHT22;7588;62.368;25.902;2023-05-19T02:10:26;2.70;99.90
14985;DHT22;7588;62.368;25.902;2023-05-19T02:12:59;2.70;99.90
14985;DHT22;7588;62.368;25.902;2023-05-19T02:15:29;2.80;99.90
14985;DHT22;7588;62.368;25.902;2023-05-19T02:17:58;2.80;99.90
14985;DHT22;7588;62.368;25.902;2023-05-19T02:20:28;2.70;99.90
14985;DHT22;7588;62.368;25.902;2023-05-19T02:22:54;2.70;99.90
14985;DHT22;7588;62.368;25.902;2023-05-19T02:25:19;2.80;99.90
14985;DHT22;7588;62.368;25.902;2023-05-19T02:27:46;2.80;99.90
14985;DHT22;7588;62.368;25.902;2023-05-19T02:30:13;2.80;99.90
14985;DHT22;7588;62.368;25.902;2023-05-19T02:32:39;2.80;99.90
14985;DHT22;7588;62.368;25.902;2023-05-19T02:35:05;2.90;99.90
14985;DHT22;7588;62.368;25.902;2023-05-19T02:37:30;3.00;99.90
14985;DHT22;7588;62.368;25.902;2023-05-19T02:39:57;3.00;99.90
14985;DHT22;7588;62.368;25.902;2023-05-19T02:42:22;2.90;99.90
14985;DHT22;7588;62.368;25.902;2023-05-19T02:44:48;2.90;99.90
14985;DHT22;7588;62.368;25.902;2023-05-19T02:47:14;2.90;99.90
14985;DHT22;7588;62.368;25.902;2023-05-19T02:49:40;2.90;99.90
14985;DHT22;7588;62.368;25.902;2023-05-19T02:52:07;2.90;99.90
14985;DHT22;7588;62.368;25.902;2023-05-19T02:54:33;3.00;99.90
14985;DHT22;7588;62.368;25.902;2023-05-19T02:56:59;3.00;99.90
14985;DHT22;7588;62.368;25.902;2023-05-19T02:59:25;3.00;99.90
14985;DHT22;7588;62.368;25.902;2023-05-19T03:02:00;3.00;99.90
14985;DHT22;7588;62.368;25.902;2023-05-19T03:04:26;3.00;99.90
14985;DHT22;7588;62.368;25.902;2023-05-19T03:06:52;3.00;99.90
14985;DHT22;7588;62.368;25.902;2023-05-19T03:09:19;3.10;99.90
14985;DHT22;7588;62.368;25.902;2023-05-19T03:11:44;3.20;99.90
14985;DHT22;7588;62.368;25.902;2023-05-19T03:14:11;3.20;99.90
14985;DHT22;7588;62.368;25.902;2023-05-19T03:16:38;3.20;99.90
14985;DHT22;7588;62.368;25.902;2023-05-19T03:19:05;3.30;99.90
14985;DHT22;7588;62.368;25.902;2023-05-19T03:21:31;3.40;99.90
14985;DHT22;7588;62.368;25.902;2023-05-19T03:23:59;3.40;99.90
14985;DHT22;7588;62.368;25.902;2023-05-19T03:26:25;3.50;99.90
14985;DHT22;7588;62.368;25.902;2023-05-19T03:28:51;3.60;99.90
14985;DHT22;7588;62.368;25.902;2023-05-19T03:31:17;3.70;99.90
14985;DHT22;7588;62.368;25.902;2023-05-19T03:33:42;3.80;99.90
14985;DHT22;7588;62.368;25.902;2023-05-19T03:36:08;3.80;99.90
14985;DHT22;7588;62.368;25.902;2023-05-19T03:38:34;4.00;99.90
14985;DHT22;7588;62.368;25.902;2023-05-19T03:41:00;4.10;99.90
14985;DHT22;7588;62.368;25.902;2023-05-19T03:43:25;4.10;99.90
14985;DHT22;7588;62.368;25.902;2023-05-19T03:45:51;4.20;99.90
14985;DHT22;7588;62.368;25.902;2023-05-19T03:48:17;4.40;99.90
14985;DHT22;7588;62.368;25.902;2023-05-19T03:50:43;4.70;99.90
14985;DHT22;7588;62.368;25.902;2023-05-19T03:53:09;5.00;99.90
14985;DHT22;7588;62.368;25.902;2023-05-19T03:55:35;5.30;99.90
14985;DHT22;7588;62.368;25.902;2023-05-19T03:58:02;5.70;99.90
14985;DHT22;7588;62.368;25.902;2023-05-19T04:00:28;5.80;99.90
14985;DHT22;7588;62.368;25.902;2023-05-19T04:02:53;5.90;99.90
14985;DHT22;7588;62.368;25.902;2023-05-19T04:05:19;6.00;99.90
14985;DHT22;7588;62.368;25.902;2023-05-19T04:07:45;6.30;99.90
14985;DHT22;7588;62.368;25.902;2023-05-19T04:10:11;6.50;99.90
14985;DHT22;7588;62.368;25.902;2023-05-19T04:12:37;6.70;99.90
14985;DHT22;7588;62.368;25.902;2023-05-19T04:15:03;6.80;99.90
14985;DHT22;7588;62.368;25.902;2023-05-19T04:17:30;6.90;99.90
14985;DHT22;7588;62.368;25.902;2023-05-19T04:19:56;7.00;99.90
14985;DHT22;7588;62.368;25.902;2023-05-19T04:22:22;7.20;99.90
14985;DHT22;7588;62.368;25.902;2023-05-19T04:24:47;7.50;99.90
14985;DHT22;7588;62.368;25.902;2023-05-19T04:27:15;7.90;99.90
14985;DHT22;7588;62.368;25.902;2023-05-19T04:29:42;8.20;99.90
14985;DHT22;7588;62.368;25.902;2023-05-19T04:32:08;8.70;99.90
14985;DHT22;7588;62.368;25.902;2023-05-19T04:34:35;9.70;99.90
14985;DHT22;7588;62.368;25.902;2023-05-19T04:37:07;10.60;97.50
14985;DHT22;7588;62.368;25.902;2023-05-19T04:39:34;11.40;94.50
14985;DHT22;7588;62.368;25.902;2023-05-19T04:42:03;11.80;94.70
14985;DHT22;7588;62.368;25.902;2023-05-19T04:44:29;12.30;92.00
14985;DHT22;7588;62.368;25.902;2023-05-19T04:46:55;12.60;88.40
14985;DHT22;7588;62.368;25.902;2023-05-19T04:49:22;13.00;90.00
14985;DHT22;7588;62.368;25.902;2023-05-19T04:51:48;13.20;88.10
14985;DHT22;7588;62.368;25.902;2023-05-19T04:54:16;13.60;85.40
14985;DHT22;7588;62.368;25.902;2023-05-19T04:56:41;13.20;87.60
14985;DHT22;7588;62.368;25.902;2023-05-19T04:59:08;13.70;82.20
14985;DHT22;7588;62.368;25.902;2023-05-19T05:01:34;14.10;80.30
14985;DHT22;7588;62.368;25.902;2023-05-19T05:04:05;14.10;82.90
14985;DHT22;7588;62.368;25.902;2023-05-19T05:06:31;14.20;82.60
14985;DHT22;7588;62.368;25.902;2023-05-19T05:08:57;14.20;77.80
14985;DHT22;7588;62.368;25.902;2023-05-19T05:11:23;14.40;78.70
14985;DHT22;7588;62.368;25.902;2023-05-19T05:13:48;14.40;82.60
14985;DHT22;7588;62.368;25.902;2023-05-19T05:16:15;13.80;81.80
14985;DHT22;7588;62.368;25.902;2023-05-19T05:18:41;14.10;80.90
14985;DHT22;7588;62.368;25.902;2023-05-19T05:21:07;14.70;78.80
14985;DHT22;7588;62.368;25.902;2023-05-19T05:23:33;14.70;79.90
14985;DHT22;7588;62.368;25.902;2023-05-19T05:26:07;15.20;80.30
14985;DHT22;7588;62.368;25.902;2023-05-19T05:28:33;15.20;76.80
14985;DHT22;7588;62.368;25.902;2023-05-19T05:30:59;15.70;76.00
14985;DHT22;7588;62.368;25.902;2023-05-19T05:33:25;15.70;75.20
14985;DHT22;7588;62.368;25.902;2023-05-19T05:35:51;14.80;77.30
14985;DHT22;7588;62.368;25.902;2023-05-19T05:38:17;14.90;74.80
14985;DHT22;7588;62.368;25.902;2023-05-19T05:40:43;15.10;77.80
14985;DHT22;7588;62.368;25.902;2023-05-19T05:43:08;15.20;74.20
14985;DHT22;7588;62.368;25.902;2023-05-19T05:45:34;15.20;80.50
14985;DHT22;7588;62.368;25.902;2023-05-19T05:48:00;15.40;77.80
14985;DHT22;7588;62.368;25.902;2023-05-19T05:50:26;15.60;75.60
14985;DHT22;7588;62.368;25.902;2023-05-19T05:52:52;15.60;73.90
14985;DHT22;7588;62.368;25.902;2023-05-19T05:55:20;15.80;72.00
14985;DHT22;7588;62.368;25.902;2023-05-19T05:57:45;15.70;71.60
14985;DHT22;7588;62.368;25.902;2023-05-19T06:00:13;15.70;75.20
14985;DHT22;7588;62.368;25.902;2023-05-19T06:02:45;15.20;75.80
14985;DHT22;7588;62.368;25.902;2023-05-19T06:05:11;15.00;76.60
14985;DHT22;7588;62.368;25.902;2023-05-19T06:07:38;15.20;72.00
14985;DHT22;7588;62.368;25.902;2023-05-19T06:10:05;15.60;76.40
14985;DHT22;7588;62.368;25.902;2023-05-19T06:12:31;15.80;71.20
14985;DHT22;7588;62.368;25.902;2023-05-19T06:14:57;15.60;68.80
14985;DHT22;7588;62.368;25.902;2023-05-19T06:17:22;15.70;69.20
14985;DHT22;7588;62.368;25.902;2023-05-19T06:19:48;15.20;72.80
14985;DHT22;7588;62.368;25.902;2023-05-19T06:22:14;15.20;68.10
14985;DHT22;7588;62.368;25.902;2023-05-19T06:24:40;15.20;70.70
14985;DHT22;7588;62.368;25.902;2023-05-19T06:27:05;15.50;70.80
14985;DHT22;7588;62.368;25.902;2023-05-19T06:29:31;15.30;69.00
14985;DHT22;7588;62.368;25.902;2023-05-19T06:31:57;16.00;69.90
14985;DHT22;7588;62.368;25.902;2023-05-19T06:34:23;15.50;66.20
14985;DHT22;7588;62.368;25.902;2023-05-19T06:36:49;15.30;68.60
14985;DHT22;7588;62.368;25.902;2023-05-19T06:39:14;15.60;68.90
14985;DHT22;7588;62.368;25.902;2023-05-19T06:41:40;16.00;64.50
14985;DHT22;7588;62.368;25.902;2023-05-19T06:44:06;15.90;69.10
14985;DHT22;7588;62.368;25.902;2023-05-19T06:46:35;16.10;68.00
14985;DHT22;7588;62.368;25.902;2023-05-19T06:49:00;15.80;65.20
14985;DHT22;7588;62.368;25.902;2023-05-19T06:51:26;15.60;65.90
14985;DHT22;7588;62.368;25.902;2023-05-19T06:53:52;15.90;69.00
14985;DHT22;7588;62.368;25.902;2023-05-19T06:56:17;16.20;67.60
14985;DHT22;7588;62.368;25.902;2023-05-19T06:58:44;16.40;67.00
14985;DHT22;7588;62.368;25.902;2023-05-19T07:01:10;16.40;67.50
14985;DHT22;7588;62.368;25.902;2023-05-19T07:03:36;16.70;65.00
14985;DHT22;7588;62.368;25.902;2023-05-19T07:06:01;17.00;68.40
14985;DHT22;7588;62.368;25.902;2023-05-19T07:08:27;17.30;62.90
14985;DHT22;7588;62.368;25.902;2023-05-19T07:10:53;17.00;64.40
14985;DHT22;7588;62.368;25.902;2023-05-19T07:13:22;16.60;64.00
14985;DHT22;7588;62.368;25.902;2023-05-19T07:15:47;16.50;65.10
14985;DHT22;7588;62.368;25.902;2023-05-19T07:18:14;16.60;68.00
14985;DHT22;7588;62.368;25.902;2023-05-19T07:20:40;16.70;65.90
14985;DHT22;7588;62.368;25.902;2023-05-19T07:23:06;16.90;68.80
14985;DHT22;7588;62.368;25.902;2023-05-19T07:25:31;16.90;66.00
14985;DHT22;7588;62.368;25.902;2023-05-19T07:27:58;16.50;68.10
14985;DHT22;7588;62.368;25.902;2023-05-19T07:30:26;16.60;65.90
14985;DHT22;7588;62.368;25.902;2023-05-19T07:32:51;16.90;70.00
14985;DHT22;7588;62.368;25.902;2023-05-19T07:35:17;16.90;66.80
14985;DHT22;7588;62.368;25.902;2023-05-19T07:37:43;16.80;65.10
14985;DHT22;7588;62.368;25.902;2023-05-19T07:40:08;17.20;68.60
14985;DHT22;7588;62.368;25.902;2023-05-19T07:42:34;17.20;65.30
14985;DHT22;7588;62.368;25.902;2023-05-19T07:45:00;17.30;66.00
14985;DHT22;7588;62.368;25.902;2023-05-19T07:47:28;16.90;66.80
14985;DHT22;7588;62.368;25.902;2023-05-19T07:49:54;16.50;65.00
14985;DHT22;7588;62.368;25.902;2023-05-19T07:52:19;16.50;69.40
14985;DHT22;7588;62.368;25.902;2023-05-19T07:54:45;16.60;69.90
14985;DHT22;7588;62.368;25.902;2023-05-19T07:57:11;16.80;64.90
14985;DHT22;7588;62.368;25.902;2023-05-19T07:59:37;16.90;66.20
14985;DHT22;7588;62.368;25.902;2023-05-19T08:02:02;17.00;63.00
14985;DHT22;7588;62.368;25.902;2023-05-19T08:04:28;17.30;69.00
14985;DHT22;7588;62.368;25.902;2023-05-19T08:06:54;17.10;66.30
14985;DHT22;7588;62.368;25.902;2023-05-19T08:09:19;17.20;63.90
14985;DHT22;7588;62.368;25.902;2023-05-19T08:11:45;17.20;66.80
14985;DHT22;7588;62.368;25.902;2023-05-19T08:14:14;17.00;65.60
14985;DHT22;7588;62.368;25.902;2023-05-19T08:16:40;17.20;65.60
14985;DHT22;7588;62.368;25.902;2023-05-19T08:19:07;17.60;64.20
14985;DHT22;7588;62.368;25.902;2023-05-19T08:21:33;17.70;63.60
14985;DHT22;7588;62.368;25.902;2023-05-19T08:24:00;17.60;65.60
14985;DHT22;7588;62.368;25.902;2023-05-19T08:26:26;17.60;67.90
14985;DHT22;7588;62.368;25.902;2023-05-19T08:28:52;17.40;63.60
14985;DHT22;7588;62.368;25.902;2023-05-19T08:31:18;17.00;63.90
14985;DHT22;7588;62.368;25.902;2023-05-19T08:33:44;16.90;65.40
14985;DHT22;7588;62.368;25.902;2023-05-19T08:36:10;16.90;60.70
14985;DHT22;7588;62.368;25.902;2023-05-19T08:38:36;17.30;63.20
14985;DHT22;7588;62.368;25.902;2023-05-19T08:41:02;17.30;60.20
14985;DHT22;7588;62.368;25.902;2023-05-19T08:43:28;17.30;59.90
14985;DHT22;7588;62.368;25.902;2023-05-19T08:45:53;17.30;62.90
14985;DHT22;7588;62.368;25.902;2023-05-19T08:48:21;17.50;58.90
14985;DHT22;7588;62.368;25.902;2023-05-19T08:53:33;17.60;58.50
14985;DHT22;7588;62.368;25.902;2023-05-19T08:56:05;17.80;59.40
14985;DHT22;7588;62.368;25.902;2023-05-19T08:58:39;18.10;58.60
14985;DHT22;7588;62.368;25.902;2023-05-19T09:01:06;18.40;58.20
14985;DHT22;7588;62.368;25.902;2023-05-19T09:03:35;18.70;60.80
14985;DHT22;7588;62.368;25.902;2023-05-19T09:06:09;19.10;60.50
14985;DHT22;7588;62.368;25.902;2023-05-19T09:08:42;18.50;59.40
14985;DHT22;7588;62.368;25.902;2023-05-19T09:11:09;18.10;57.80
14985;DHT22;7588;62.368;25.902;2023-05-19T09:13:35;18.20;56.40
14985;DHT22;7588;62.368;25.902;2023-05-19T09:16:01;18.00;59.00
14985;DHT22;7588;62.368;25.902;2023-05-19T09:18:28;17.90;58.00
14985;DHT22;7588;62.368;25.902;2023-05-19T09:20:59;18.00;59.50
14985;DHT22;7588;62.368;25.902;2023-05-19T09:23:30;17.90;55.90
14985;DHT22;7588;62.368;25.902;2023-05-19T09:25:57;17.60;62.50
14985;DHT22;7588;62.368;25.902;2023-05-19T09:28:27;17.40;56.70
14985;DHT22;7588;62.368;25.902;2023-05-19T09:31:08;17.90;60.40
14985;DHT22;7588;62.368;25.902;2023-05-19T09:33:36;18.70;59.00
14985;DHT22;7588;62.368;25.902;2023-05-19T09:36:02;19.60;56.80
14985;DHT22;7588;62.368;25.902;2023-05-19T09:38:30;19.40;52.50
14985;DHT22;7588;62.368;25.902;2023-05-19T09:40:57;19.60;53.70
14985;DHT22;7588;62.368;25.902;2023-05-19T09:43:29;19.40;56.30
14985;DHT22;7588;62.368;25.902;2023-05-19T09:46:06;18.70;53.80
14985;DHT22;7588;62.368;25.902;2023-05-19T09:48:35;18.50;55.30
14985;DHT22;7588;62.368;25.902;2023-05-19T09:51:02;18.70;59.00
14985;DHT22;7588;62.368;25.902;2023-05-19T09:53:29;18.60;57.50
14985;DHT22;7588;62.368;25.902;2023-05-19T09:55:57;18.80;54.10
14985;DHT22;7588;62.368;25.902;2023-05-19T09:58:23;18.70;56.60
14985;DHT22;7588;62.368;25.902;2023-05-19T10:00:49;18.60;54.60
14985;DHT22;7588;62.368;25.902;2023-05-19T10:03:15;19.00;57.30
14985;DHT22;7588;62.368;25.902;2023-05-19T10:05:44;19.30;52.20
14985;DHT22;7588;62.368;25.902;2023-05-19T10:08:11;19.10;58.80
14985;DHT22;7588;62.368;25.902;2023-05-19T10:10:37;19.30;53.00
14985;DHT22;7588;62.368;25.902;2023-05-19T10:13:04;19.60;52.20
14985;DHT22;7588;62.368;25.902;2023-05-19T10:15:30;20.00;55.60
14985;DHT22;7588;62.368;25.902;2023-05-19T10:17:56;20.20;52.20
14985;DHT22;7588;62.368;25.902;2023-05-19T10:20:23;19.90;54.10
14985;DHT22;7588;62.368;25.902;2023-05-19T10:22:50;19.90;52.60
14985;DHT22;7588;62.368;25.902;2023-05-19T10:25:16;20.10;53.00
14985;DHT22;7588;62.368;25.902;2023-05-19T10:27:57;20.10;51.60
14985;DHT22;7588;62.368;25.902;2023-05-19T10:30:36;20.30;54.30
14985;DHT22;7588;62.368;25.902;2023-05-19T10:33:03;20.00;52.80
14985;DHT22;7588;62.368;25.902;2023-05-19T10:39:06;19.40;53.30
14985;DHT22;7588;62.368;25.902;2023-05-19T10:42:02;20.00;55.80
14985;DHT22;7588;62.368;25.902;2023-05-19T10:47:05;19.60;56.20
14985;DHT22;7588;62.368;25.902;2023-05-19T10:49:35;20.20;52.70
14985;DHT22;7588;62.368;25.902;2023-05-19T10:52:01;20.60;56.10
14985;DHT22;7588;62.368;25.902;2023-05-19T10:54:42;21.10;53.70
14985;DHT22;7588;62.368;25.902;2023-05-19T10:57:15;20.50;50.90
14985;DHT22;7588;62.368;25.902;2023-05-19T10:59:41;19.60;53.80
14985;DHT22;7588;62.368;25.902;2023-05-19T11:02:09;20.10;51.90
14985;DHT22;7588;62.368;25.902;2023-05-19T11:04:46;20.70;54.60
14985;DHT22;7588;62.368;25.902;2023-05-19T11:07:20;20.70;50.40
14985;DHT22;7588;62.368;25.902;2023-05-19T11:09:51;21.20;49.90
14985;DHT22;7588;62.368;25.902;2023-05-19T11:12:20;22.00;47.10
14985;DHT22;7588;62.368;25.902;2023-05-19T11:14:53;22.70;49.80
14985;DHT22;7588;62.368;25.902;2023-05-19T11:17:19;22.60;48.00
14985;DHT22;7588;62.368;25.902;2023-05-19T11:19:55;21.90;46.00
14985;DHT22;7588;62.368;25.902;2023-05-19T11:22:25;20.90;48.00
14985;DHT22;7588;62.368;25.902;2023-05-19T11:24:53;20.20;51.80
14985;DHT22;7588;62.368;25.902;2023-05-19T11:27:32;20.30;49.00
14985;DHT22;7588;62.368;25.902;2023-05-19T11:32:34;20.80;50.90
14985;DHT22;7588;62.368;25.902;2023-05-19T11:35:04;20.80;50.00
14985;DHT22;7588;62.368;25.902;2023-05-19T11:37:32;20.60;52.40
14985;DHT22;7588;62.368;25.902;2023-05-19T11:40:05;21.00;52.40
14985;DHT22;7588;62.368;25.902;2023-05-19T11:42:32;21.70;48.70
14985;DHT22;7588;62.368;25.902;2023-05-19T11:45:02;21.60;49.50
14985;DHT22;7588;62.368;25.902;2023-05-19T11:47:29;22.00;47.10
14985;DHT22;7588;62.368;25.902;2023-05-19T11:49:55;22.10;48.20
14985;DHT22;7588;62.368;25.902;2023-05-19T11:52:24;22.00;53.30
14985;DHT22;7588;62.368;25.902;2023-05-19T11:54:50;22.10;48.70
14985;DHT22;7588;62.368;25.902;2023-05-19T11:57:17;22.30;48.30
14985;DHT22;7588;62.368;25.902;2023-05-19T11:59:43;22.70;50.90
14985;DHT22;7588;62.368;25.902;2023-05-19T12:02:22;22.30;47.00
14985;DHT22;7588;62.368;25.902;2023-05-19T12:04:52;21.90;51.20
14985;DHT22;7588;62.368;25.902;2023-05-19T12:07:23;21.90;48.60
14985;DHT22;7588;62.368;25.902;2023-05-19T12:09:49;22.00;49.20
14985;DHT22;7588;62.368;25.902;2023-05-19T12:12:17;21.80;51.80
14985;DHT22;7588;62.368;25.902;2023-05-19T12:14:45;21.80;49.10
14985;DHT22;7588;62.368;25.902;2023-05-19T12:17:16;21.80;51.90
14985;DHT22;7588;62.368;25.902;2023-05-19T12:19:43;21.20;48.90
14985;DHT22;7588;62.368;25.902;2023-05-19T12:22:09;21.30;49.80
14985;DHT22;7588;62.368;25.902;2023-05-19T12:24:36;21.40;51.20
14985;DHT22;7588;62.368;25.902;2023-05-19T12:27:23;21.30;51.60
14985;DHT22;7588;62.368;25.902;2023-05-19T12:29:52;21.20;50.60
14985;DHT22;7588;62.368;25.902;2023-05-19T12:32:22;21.30;55.30
14985;DHT22;7588;62.368;25.902;2023-05-19T12:34:49;21.80;51.00
14985;DHT22;7588;62.368;25.902;2023-05-19T12:37:15;21.70;53.00
14985;DHT22;7588;62.368;25.902;2023-05-19T12:39:41;21.50;49.00
14985;DHT22;7588;62.368;25.902;2023-05-19T12:42:08;21.60;51.80
14985;DHT22;7588;62.368;25.902;2023-05-19T12:44:41;22.00;48.50
14985;DHT22;7588;62.368;25.902;2023-05-19T12:47:08;22.70;47.00
14985;DHT22;7588;62.368;25.902;2023-05-19T12:49:33;22.80;48.30
14985;DHT22;7588;62.368;25.902;2023-05-19T12:52:03;23.40;49.10
14985;DHT22;7588;62.368;25.902;2023-05-19T12:54:32;23.10;48.70
14985;DHT22;7588;62.368;25.902;2023-05-19T12:56:58;22.90;46.90
14985;DHT22;7588;62.368;25.902;2023-05-19T12:59:24;22.90;52.20
14985;DHT22;7588;62.368;25.902;2023-05-19T13:01:57;23.20;50.50
14985;DHT22;7588;62.368;25.902;2023-05-19T13:04:24;23.20;48.50
14985;DHT22;7588;62.368;25.902;2023-05-19T13:06:51;23.50;46.70
14985;DHT22;7588;62.368;25.902;2023-05-19T13:09:16;23.40;47.30
14985;DHT22;7588;62.368;25.902;2023-05-19T13:11:45;22.60;48.00
14985;DHT22;7588;62.368;25.902;2023-05-19T13:14:15;22.90;49.50
14985;DHT22;7588;62.368;25.902;2023-05-19T13:16:43;23.10;49.60
14985;DHT22;7588;62.368;25.902;2023-05-19T13:19:13;22.60;47.50
14985;DHT22;7588;62.368;25.902;2023-05-19T13:21:39;22.10;50.30
14985;DHT22;7588;62.368;25.902;2023-05-19T13:24:05;21.60;48.20
14985;DHT22;7588;62.368;25.902;2023-05-19T13:26:31;21.40;47.80
14985;DHT22;7588;62.368;25.902;2023-05-19T13:28:56;20.70;50.30
14985;DHT22;7588;62.368;25.902;2023-05-19T13:31:22;20.20;51.80
14985;DHT22;7588;62.368;25.902;2023-05-19T13:33:48;20.10;51.50
14985;DHT22;7588;62.368;25.902;2023-05-19T13:36:13;20.30;50.80
14985;DHT22;7588;62.368;25.902;2023-05-19T13:38:39;20.30;53.70
14985;DHT22;7588;62.368;25.902;2023-05-19T13:41:06;20.30;51.60
14985;DHT22;7588;62.368;25.902;2023-05-19T13:43:32;20.30;52.60
14985;DHT22;7588;62.368;25.902;2023-05-19T13:45:57;20.20;52.60
14985;DHT22;7588;62.368;25.902;2023-05-19T13:48:23;19.70;52.00
14985;DHT22;7588;62.368;25.902;2023-05-19T13:50:49;19.50;52.20
14985;DHT22;7588;62.368;25.902;2023-05-19T13:53:16;19.20;55.20
14985;DHT22;7588;62.368;25.902;2023-05-19T13:55:42;19.20;54.40
14985;DHT22;7588;62.368;25.902;2023-05-19T13:58:08;19.10;53.10
14985;DHT22;7588;62.368;25.902;2023-05-19T14:00:35;19.20;52.70
14985;DHT22;7588;62.368;25.902;2023-05-19T14:03:01;19.10;55.20
14985;DHT22;7588;62.368;25.902;2023-05-19T14:05:27;18.90;55.50
14985;DHT22;7588;62.368;25.902;2023-05-19T14:07:53;18.80;54.00
14985;DHT22;7588;62.368;25.902;2023-05-19T14:10:19;18.60;55.60
14985;DHT22;7588;62.368;25.902;2023-05-19T14:12:45;18.60;55.30
14985;DHT22;7588;62.368;25.902;2023-05-19T14:15:11;18.40;56.60
14985;DHT22;7588;62.368;25.902;2023-05-19T14:17:36;18.50;53.40
14985;DHT22;7588;62.368;25.902;2023-05-19T14:20:02;18.50;54.10
14985;DHT22;7588;62.368;25.902;2023-05-19T14:22:28;18.70;54.90
14985;DHT22;7588;62.368;25.902;2023-05-19T14:24:54;18.70;54.90
14985;DHT22;7588;62.368;25.902;2023-05-19T14:27:20;18.80;58.10
14985;DHT22;7588;62.368;25.902;2023-05-19T14:29:45;18.80;55.80
14985;DHT22;7588;62.368;25.902;2023-05-19T14:32:13;19.00;53.50
14985;DHT22;7588;62.368;25.902;2023-05-19T14:34:38;19.00;53.20
14985;DHT22;7588;62.368;25.902;2023-05-19T14:37:04;19.00;52.20
14985;DHT22;7588;62.368;25.902;2023-05-19T14:39:30;18.70;55.20
14985;DHT22;7588;62.368;25.902;2023-05-19T14:41:57;18.60;53.50
14985;DHT22;7588;62.368;25.902;2023-05-19T14:44:28;18.80;54.50
14985;DHT22;7588;62.368;25.902;2023-05-19T14:46:54;18.80;55.70
14985;DHT22;7588;62.368;25.902;2023-05-19T14:49:19;19.00;53.40
14985;DHT22;7588;62.368;25.902;2023-05-19T14:51:45;19.10;54.10
14985;DHT22;7588;62.368;25.902;2023-05-19T14:54:11;19.20;55.20
14985;DHT22;7588;62.368;25.902;2023-05-19T14:56:36;19.30;55.50
14985;DHT22;7588;62.368;25.902;2023-05-19T14:59:02;19.40;52.40
14985;DHT22;7588;62.368;25.902;2023-05-19T15:01:28;19.30;54.50
14985;DHT22;7588;62.368;25.902;2023-05-19T15:03:54;18.90;53.70
14985;DHT22;7588;62.368;25.902;2023-05-19T15:06:20;18.70;56.20
14985;DHT22;7588;62.368;25.902;2023-05-19T15:08:46;18.60;55.90
14985;DHT22;7588;62.368;25.902;2023-05-19T15:11:12;18.50;55.30
14985;DHT22;7588;62.368;25.902;2023-05-19T15:13:37;18.60;56.60
14985;DHT22;7588;62.368;25.902;2023-05-19T15:16:03;18.80;54.40
14985;DHT22;7588;62.368;25.902;2023-05-19T15:18:29;18.80;54.90
14985;DHT22;7588;62.368;25.902;2023-05-19T15:20:55;18.80;56.00
14985;DHT22;7588;62.368;25.902;2023-05-19T15:23:20;19.00;56.10
14985;DHT22;7588;62.368;25.902;2023-05-19T15:25:46;18.90;55.10
14985;DHT22;7588;62.368;25.902;2023-05-19T15:28:12;19.00;56.50
14985;DHT22;7588;62.368;25.902;2023-05-19T15:30:37;19.00;55.10
14985;DHT22;7588;62.368;25.902;2023-05-19T15:33:04;18.90;55.40
14985;DHT22;7588;62.368;25.902;2023-05-19T15:35:30;19.10;55.10
14985;DHT22;7588;62.368;25.902;2023-05-19T15:37:55;18.90;55.80
14985;DHT22;7588;62.368;25.902;2023-05-19T15:40:22;18.80;54.70
14985;DHT22;7588;62.368;25.902;2023-05-19T15:42:48;18.50;54.60
14985;DHT22;7588;62.368;25.902;2023-05-19T15:45:14;18.30;55.30
14985;DHT22;7588;62.368;25.902;2023-05-19T15:47:39;18.30;55.90
14985;DHT22;7588;62.368;25.902;2023-05-19T15:50:05;18.20;56.60
14985;DHT22;7588;62.368;25.902;2023-05-19T15:52:31;18.20;57.70
14985;DHT22;7588;62.368;25.902;2023-05-19T15:54:57;18.00;57.00
14985;DHT22;7588;62.368;25.902;2023-05-19T15:57:23;17.90;57.50
14985;DHT22;7588;62.368;25.902;2023-05-19T15:59:49;17.80;57.40
14985;DHT22;7588;62.368;25.902;2023-05-19T16:02:15;17.60;56.30